Virtual Norwegian is not affiliated with Norwegian Air Shuttle in any way.
If you are looking for the real "Norwegian", or you wish to book Norwegian flights, please visit Norwegian.com


We use cookies to ensure you get the best experience on our website.   ACCEPT

SBGL - GIG - Rio De Janeiro (Galeao Antonio Carlos Jobim)

General Info Alternate Airport
ICAO: SBGL Elevation: 28 ft ICAO: SARI
IATA: GIG Country: Brazil IATA: IGR
City: Rio De Janeiro Charts: Log in to view charts City: Iguazu Falls
Name: Galeao Antonio Carlos Jobim Hub: No Name Cataratas Del Iguazu
General Info
ICAO: SBGL
IATA: GIG
City: Rio De Janeiro
Name: Galeao Antonio Carlos Jobim
Elevation: 28 ft
Country: Brazil
Charts: Log in to view charts
Hub: No
 
Alternate Airport
ICAO: SARI
IATA: IGR
City: Iguazu Falls
Name: Cataratas Del Iguazu

Weather
212100Z 28007KT 9999 SCT012 BKN014 OVC025 22/19 Q1017
Weather
212100Z 28007KT 9999 SCT012 BKN014 OVC025 22/19 Q1017

NOTAMs
NOTAMs currently unavailable.
NOTAMs
NOTAMs currently unavailable

Route map
Airport
Airport (hub)